Time;durP1;ratioP1;P1;durP2;ratioP2;P2;SDS_P1;SDS_P2;PMS_P1;PMS_P2;Temp;Humidity;BMP_temperature;BMP_pressure;BME280_temperature;BME280_humidity;BME280_pressure;Samples;Min_cycle;Max_cycle;Signal;HPM_P1;HPM_P2
2022/06/17 00:00:53;;;;;;;2.20;2.00;;;19.20;1.00;;;;;;5113105;28;20451;-67
2022/06/17 00:03:21;;;;;;;1.93;1.77;;;19.10;1.00;;;;;;5113955;28;20793;-66
2022/06/17 00:05:48;;;;;;;1.77;1.67;;;19.30;1.00;;;;;;5112671;28;20530;-66
2022/06/17 00:08:27;;;;;;;3.60;1.93;;;19.30;1.00;;;;;;5113606;28;20459;-66
2022/06/17 00:10:55;;;;;;;2.27;1.80;;;19.30;1.00;;;;;;5113018;28;20450;-66
2022/06/17 00:13:23;;;;;;;2.83;1.53;;;19.00;1.00;;;;;;5113638;28;20497;-68
2022/06/17 00:15:50;;;;;;;2.50;1.80;;;19.00;1.00;;;;;;5112857;28;20511;-67
2022/06/17 00:18:18;;;;;;;1.73;1.63;;;19.00;1.00;;;;;;5113344;28;20923;-69
2022/06/17 00:20:46;;;;;;;2.83;2.00;;;19.20;1.00;;;;;;5113026;28;20447;-65
2022/06/17 00:23:18;;;;;;;1.93;1.40;;;19.30;1.00;;;;;;5113445;28;20444;-66
2022/06/17 00:25:47;;;;;;;2.50;1.80;;;19.40;1.00;;;;;;5112418;28;20513;-66
2022/06/17 00:28:16;;;;;;;1.90;1.70;;;19.40;1.00;;;;;;5112843;28;20478;-66
2022/06/17 00:30:44;;;;;;;3.57;2.03;;;19.40;1.00;;;;;;5099876;28;20459;-66
2022/06/17 00:33:12;;;;;;;1.60;1.50;;;19.30;1.00;;;;;;5112882;28;20448;-65
2022/06/17 00:35:42;;;;;;;1.97;1.70;;;19.40;1.00;;;;;;5112380;28;20944;-67
2022/06/17 00:38:14;;;;;;;1.97;1.80;;;19.40;1.00;;;;;;5112522;28;20436;-67
2022/06/17 00:40:43;;;;;;;2.00;1.60;;;19.30;1.00;;;;;;5113152;28;20462;-67
2022/06/17 00:43:19;;;;;;;1.70;1.47;;;19.20;1.00;;;;;;5112063;28;21044;-65
2022/06/17 00:45:50;;;;;;;1.53;1.43;;;19.30;1.00;;;;;;5112478;28;20915;-65
2022/06/17 00:48:22;;;;;;;1.47;1.37;;;19.00;1.00;;;;;;5113106;28;20451;-66
2022/06/17 00:50:54;;;;;;;1.63;1.40;;;18.80;1.00;;;;;;5112447;28;20497;-66
2022/06/17 00:53:24;;;;;;;2.63;1.50;;;18.60;1.00;;;;;;5112831;28;20527;-67
2022/06/17 00:55:55;;;;;;;1.20;1.10;;;18.60;1.00;;;;;;5112138;28;20558;-67
2022/06/17 00:58:25;;;;;;;2.13;1.90;;;18.60;1.00;;;;;;5112931;28;20447;-66
2022/06/17 01:00:54;;;;;;;2.10;1.90;;;18.80;1.00;;;;;;5111774;28;20526;-66
2022/06/17 01:03:24;;;;;;;1.83;1.70;;;18.70;1.00;;;;;;5112306;28;20482;-69
2022/06/17 01:05:55;;;;;;;1.57;1.47;;;18.40;1.00;;;;;;5111301;27;20451;-67
2022/06/17 01:11:18;;;;;;;1.37;1.27;;;17.90;8.80;;;;;;5112600;28;20816;-67
2022/06/17 01:13:49;;;;;;;1.90;1.50;;;17.70;22.50;;;;;;5112077;28;20451;-67
2022/06/17 01:16:17;;;;;;;1.50;1.40;;;17.70;30.30;;;;;;5112695;28;20473;-65
2022/06/17 01:18:46;;;;;;;2.67;1.80;;;17.90;30.50;;;;;;5112447;28;20447;-65
2022/06/17 01:21:21;;;;;;;1.40;1.30;;;18.10;26.10;;;;;;5112152;28;20949;-66
2022/06/17 01:23:50;;;;;;;1.40;1.27;;;18.30;19.20;;;;;;5111212;28;20454;-68
2022/06/17 01:26:18;;;;;;;1.27;1.17;;;18.40;17.50;;;;;;5112394;28;20501;-66
2022/06/17 01:28:44;;;;;;;1.33;1.23;;;18.10;20.00;;;;;;5111978;28;20443;-65
2022/06/17 01:31:12;;;;;;;2.70;1.57;;;17.80;26.50;;;;;;5111880;28;20450;-66
2022/06/17 01:33:43;;;;;;;1.90;1.63;;;17.60;39.60;;;;;;5111676;28;20574;-66
2022/06/17 01:36:16;;;;;;;1.60;1.50;;;17.50;60.20;;;;;;5111507;28;20455;-66
2022/06/17 01:38:47;;;;;;;1.60;1.50;;;17.50;69.00;;;;;;5111487;28;20794;-65
2022/06/17 01:41:18;;;;;;;3.23;1.57;;;17.30;90.20;;;;;;5112260;28;20447;-66
2022/06/17 01:43:50;;;;;;;1.57;1.47;;;17.40;83.40;;;;;;5111914;28;20801;-65
2022/06/17 01:46:21;;;;;;;1.97;1.67;;;17.20;94.50;;;;;;5112109;28;20450;-67
2022/06/17 01:48:54;;;;;;;1.50;1.40;;;17.10;99.90;;;;;;5111549;28;20440;-68
2022/06/17 01:51:23;;;;;;;1.53;1.43;;;17.20;99.90;;;;;;5112038;28;20449;-66
2022/06/17 01:53:55;;;;;;;1.47;1.37;;;17.50;99.90;;;;;;5111366;28;20456;-66
2022/06/17 01:56:28;;;;;;;1.70;1.60;;;17.20;99.90;;;;;;5111652;28;20458;-66
2022/06/17 01:58:59;;;;;;;1.80;1.30;;;17.10;99.90;;;;;;5111444;28;20434;-66
2022/06/17 02:01:29;;;;;;;2.13;1.90;;;17.10;99.90;;;;;;5111865;28;20541;-67
2022/06/17 02:03:58;;;;;;;2.10;1.60;;;17.10;99.90;;;;;;5110851;28;20443;-67
2022/06/17 02:06:30;;;;;;;3.47;2.03;;;16.80;99.90;;;;;;5108428;28;20450;-67
2022/06/17 02:08:57;;;;;;;1.70;1.60;;;16.90;99.90;;;;;;5111122;28;20452;-67
2022/06/17 02:11:26;;;;;;;1.57;1.40;;;16.70;99.90;;;;;;5111870;28;20451;-66
2022/06/17 02:13:53;;;;;;;1.30;1.20;;;16.60;99.90;;;;;;5110344;28;20445;-66
2022/06/17 02:16:20;;;;;;;1.87;1.73;;;16.80;99.90;;;;;;5111782;28;20447;-66
2022/06/17 02:18:49;;;;;;;2.37;1.97;;;16.70;99.90;;;;;;5111102;28;20455;-69
2022/06/17 02:21:21;;;;;;;1.73;1.63;;;16.50;99.90;;;;;;5111783;28;20790;-65
2022/06/17 02:23:48;;;;;;;3.23;1.97;;;16.60;99.90;;;;;;5110772;28;20447;-69
2022/06/17 02:26:16;;;;;;;2.00;1.63;;;16.50;99.90;;;;;;5111778;28;20546;-66
2022/06/17 02:28:46;;;;;;;1.60;1.50;;;16.30;99.90;;;;;;5111374;28;20436;-66
2022/06/17 02:31:15;;;;;;;1.73;1.60;;;16.20;99.90;;;;;;5111714;28;20475;-66
2022/06/17 02:33:48;;;;;;;1.37;1.27;;;16.30;99.90;;;;;;5111351;28;20439;-66
2022/06/17 02:36:20;;;;;;;1.30;1.10;;;16.10;99.90;;;;;;5111625;28;20424;-66
2022/06/17 02:38:47;;;;;;;1.77;1.50;;;16.00;99.90;;;;;;5111916;28;20443;-70
2022/06/17 02:41:19;;;;;;;1.93;1.80;;;16.00;1.00;;;;;;5111240;28;20950;-66
2022/06/17 02:43:53;;;;;;;3.10;1.67;;;16.00;1.00;;;;;;5111372;28;20782;-66
2022/06/17 02:46:26;;;;;;;2.17;1.10;;;16.00;1.00;;;;;;5111417;28;20450;-68
2022/06/17 02:48:57;;;;;;;1.90;1.37;;;16.10;1.00;;;;;;5111070;28;20448;-66
2022/06/17 02:51:26;;;;;;;2.80;1.73;;;15.90;1.00;;;;;;5115363;28;20816;-66
2022/06/17 02:53:53;;;;;;;2.10;1.90;;;16.10;1.00;;;;;;5114269;28;20444;-66
2022/06/17 02:56:24;;;;;;;2.33;1.80;;;16.10;1.00;;;;;;5115112;28;20454;-68
2022/06/17 02:59:03;;;;;;;2.93;1.80;;;15.90;1.00;;;;;;5114463;28;20949;-67
2022/06/17 03:01:33;;;;;;;2.57;1.60;;;15.90;1.00;;;;;;5115194;28;20454;-66
2022/06/17 03:04:01;;;;;;;1.90;1.47;;;15.80;1.00;;;;;;5113768;28;20926;-66
2022/06/17 03:06:33;;;;;;;1.47;1.37;;;15.70;1.00;;;;;;5114860;28;20446;-66
2022/06/17 03:09:18;;;;;;;1.77;1.37;;;15.80;1.00;;;;;;5114148;28;20443;-66
2022/06/17 03:11:48;;;;;;;1.60;1.50;;;15.90;1.00;;;;;;5114718;28;20451;-66
2022/06/17 03:14:16;;;;;;;2.33;1.63;;;15.90;1.00;;;;;;5114528;28;20446;-66
2022/06/17 03:16:43;;;;;;;1.93;1.70;;;15.70;1.00;;;;;;5114769;28;20963;-66
2022/06/17 03:19:11;;;;;;;1.77;1.50;;;15.60;1.00;;;;;;5109184;28;20467;-66
2022/06/17 03:21:39;;;;;;;1.70;1.50;;;15.60;1.00;;;;;;5106346;28;20457;-66
2022/06/17 03:24:12;;;;;;;2.53;1.97;;;15.70;1.00;;;;;;5113656;28;20840;-66
2022/06/17 03:26:45;;;;;;;3.13;1.40;;;15.70;1.00;;;;;;5114583;27;20482;-66
2022/06/17 03:29:16;;;;;;;1.73;1.57;;;15.70;1.00;;;;;;5114720;28;20936;-66
2022/06/17 03:31:48;;;;;;;2.50;1.90;;;15.90;1.00;;;;;;5114370;28;20442;-66
2022/06/17 03:34:20;;;;;;;1.97;1.40;;;15.90;1.00;;;;;;5113939;28;20451;-66
2022/06/17 03:36:52;;;;;;;1.53;1.43;;;15.70;1.00;;;;;;5114367;28;20471;-66
2022/06/17 03:39:22;;;;;;;3.47;1.83;;;15.70;1.00;;;;;;5114423;28;20523;-66
2022/06/17 03:41:53;;;;;;;2.23;1.47;;;15.40;1.00;;;;;;5113857;28;20443;-66
2022/06/17 03:44:25;;;;;;;1.70;1.60;;;15.30;1.90;;;;;;5114046;28;20804;-66
2022/06/17 03:46:56;;;;;;;1.67;1.57;;;15.60;1.00;;;;;;5113570;28;20451;-66
2022/06/17 03:49:28;;;;;;;1.80;1.63;;;15.60;1.00;;;;;;5114197;28;20795;-65
2022/06/17 03:52:03;;;;;;;1.47;1.30;;;15.80;1.00;;;;;;5113483;28;20450;-65
2022/06/17 03:54:30;;;;;;;2.17;1.97;;;15.90;1.00;;;;;;5113642;28;20447;-65
2022/06/17 03:57:01;;;;;;;1.57;1.47;;;15.80;1.00;;;;;;5113185;28;20463;-65
2022/06/17 03:59:33;;;;;;;2.23;1.73;;;15.70;1.00;;;;;;5113960;28;20559;-66
2022/06/17 04:02:06;;;;;;;2.10;1.50;;;15.60;1.00;;;;;;5112720;28;20860;-66
2022/06/17 04:04:38;;;;;;;2.03;1.63;;;15.50;22.60;;;;;;5113378;28;20451;-65
2022/06/17 04:07:05;;;;;;;4.80;1.93;;;15.40;99.90;;;;;;5112892;28;20450;-65
2022/06/17 04:09:37;;;;;;;2.73;1.90;;;15.90;1.00;;;;;;5113594;28;20808;-66
2022/06/17 04:12:07;;;;;;;1.90;1.70;;;16.00;1.00;;;;;;5113108;28;20793;-67
2022/06/17 04:14:47;;;;;;;2.20;2.00;;;15.70;1.00;;;;;;5099779;28;20959;-65
2022/06/17 04:17:18;;;;;;;2.20;1.70;;;15.90;10.30;;;;;;5113632;28;20450;-65
2022/06/17 04:19:51;;;;;;;2.97;2.23;;;15.70;42.70;;;;;;5113978;28;20487;-65
2022/06/17 04:22:22;;;;;;;1.57;1.43;;;15.70;99.90;;;;;;5113561;28;20439;-69
2022/06/17 04:24:53;;;;;;;1.63;1.53;;;15.60;75.00;;;;;;5112308;28;20453;-67
2022/06/17 04:27:21;;;;;;;1.60;1.50;;;15.90;90.10;;;;;;5113487;28;20544;-69
2022/06/17 04:29:54;;;;;;;1.83;1.53;;;15.70;94.10;;;;;;5112791;28;20855;-68
2022/06/17 04:32:26;;;;;;;1.50;1.40;;;15.80;77.00;;;;;;5113670;28;20436;-68
2022/06/17 04:34:53;;;;;;;2.07;1.87;;;15.70;99.90;;;;;;5114582;28;20918;-65
2022/06/17 04:37:22;;;;;;;1.97;1.80;;;15.70;99.90;;;;;;5117835;28;20500;-66
2022/06/17 04:39:52;;;;;;;2.43;2.10;;;15.90;99.90;;;;;;5117466;28;20464;-66
2022/06/17 04:42:23;;;;;;;1.90;1.70;;;15.80;99.90;;;;;;5118148;28;20453;-68
2022/06/17 04:44:52;;;;;;;2.27;1.70;;;15.80;99.90;;;;;;5115220;28;20451;-66
2022/06/17 04:47:21;;;;;;;1.97;1.70;;;16.00;99.90;;;;;;5116202;28;20452;-66
2022/06/17 04:49:52;;;;;;;2.73;2.00;;;16.00;99.90;;;;;;5115491;28;20452;-67
2022/06/17 04:52:26;;;;;;;2.30;1.70;;;15.90;99.90;;;;;;5114327;28;20844;-67
2022/06/17 04:54:54;;;;;;;2.20;1.60;;;16.00;99.90;;;;;;5111673;28;21004;-67
2022/06/17 04:57:21;;;;;;;1.83;1.37;;;16.00;99.90;;;;;;5113104;28;20474;-67
2022/06/17 04:59:49;;;;;;;2.73;2.13;;;16.10;99.90;;;;;;5112199;28;20452;-67
2022/06/17 05:02:20;;;;;;;2.43;2.23;;;16.30;50.00;;;;;;5113244;28;20479;-66
2022/06/17 05:04:48;;;;;;;1.93;1.77;;;16.30;11.20;;;;;;5112587;28;20432;-72
2022/06/17 05:07:15;;;;;;;1.30;1.20;;;16.40;1.00;;;;;;5112334;28;20444;-67
2022/06/17 05:09:47;;;;;;;2.20;2.00;;;16.20;1.00;;;;;;5112866;28;20451;-66
2022/06/17 05:12:21;;;;;;;2.07;1.87;;;16.10;99.90;;;;;;5111204;28;20455;-67
2022/06/17 05:14:52;;;;;;;1.47;1.37;;;16.30;99.90;;;;;;5101070;28;20470;-69
2022/06/17 05:17:21;;;;;;;2.17;1.57;;;16.40;95.40;;;;;;5112354;28;20461;-67
2022/06/17 05:19:49;;;;;;;2.00;1.80;;;16.60;1.00;;;;;;5112068;28;20543;-67
2022/06/17 05:22:23;;;;;;;2.10;1.90;;;17.00;1.00;;;;;;5112499;28;20526;-66
2022/06/17 05:24:51;;;;;;;2.20;1.67;;;17.20;1.00;;;;;;5111695;28;20441;-67
2022/06/17 05:27:18;;;;;;;3.10;1.47;;;17.10;1.00;;;;;;5112068;28;20831;-68
2022/06/17 05:29:44;;;;;;;1.87;1.70;;;17.20;1.00;;;;;;5112596;28;20815;-66
2022/06/17 05:32:14;;;;;;;2.40;1.70;;;17.20;1.00;;;;;;5111303;28;20559;-67
2022/06/17 05:34:43;;;;;;;1.97;1.47;;;17.20;1.00;;;;;;5111734;28;20442;-67
2022/06/17 05:37:09;;;;;;;2.40;1.80;;;17.10;1.00;;;;;;5098210;28;20545;-67
2022/06/17 05:39:36;;;;;;;1.87;1.67;;;17.40;1.00;;;;;;5111822;28;20923;-67
2022/06/17 05:42:05;;;;;;;2.70;1.53;;;17.50;99.90;;;;;;5111803;28;20463;-66
2022/06/17 05:44:32;;;;;;;3.90;1.67;;;17.70;99.90;;;;;;5111589;28;20451;-67
2022/06/17 05:46:59;;;;;;;2.10;1.70;;;17.90;99.90;;;;;;5111292;28;20976;-67
2022/06/17 05:49:26;;;;;;;1.90;1.70;;;18.10;99.90;;;;;;5111740;28;20947;-67
2022/06/17 05:51:54;;;;;;;1.93;1.57;;;18.30;99.90;;;;;;5111215;28;20486;-66
2022/06/17 05:54:21;;;;;;;2.50;1.80;;;18.50;99.90;;;;;;5111585;28;20530;-67
2022/06/17 05:56:48;;;;;;;1.43;1.33;;;18.60;99.90;;;;;;5111266;28;20451;-67
2022/06/17 05:59:17;;;;;;;2.30;1.57;;;18.80;99.90;;;;;;5111955;28;20451;-66
2022/06/17 06:01:44;;;;;;;4.97;2.00;;;18.90;99.90;;;;;;5112034;28;20451;-66
2022/06/17 06:04:11;;;;;;;1.60;1.50;;;19.00;99.90;;;;;;5110704;28;20452;-66
2022/06/17 06:06:38;;;;;;;3.00;2.10;;;19.00;99.90;;;;;;5111691;28;20815;-66
2022/06/17 06:09:08;;;;;;;1.67;1.50;;;19.20;99.90;;;;;;5111041;28;20456;-66
2022/06/17 06:11:35;;;;;;;3.30;1.87;;;19.30;99.90;;;;;;5111637;28;20476;-66
2022/06/17 06:14:02;;;;;;;2.10;1.60;;;19.40;99.90;;;;;;5110821;28;20466;-66
2022/06/17 06:16:30;;;;;;;2.67;2.03;;;19.50;99.90;;;;;;5111866;28;20854;-66
2022/06/17 06:18:57;;;;;;;1.70;1.40;;;19.50;99.90;;;;;;5111065;28;20455;-66
2022/06/17 06:21:24;;;;;;;1.40;1.30;;;19.60;99.90;;;;;;5111523;28;20452;-67
2022/06/17 06:23:51;;;;;;;3.00;2.10;;;19.80;99.90;;;;;;5110447;28;20968;-67
2022/06/17 06:26:21;;;;;;;1.80;1.57;;;19.90;99.90;;;;;;5115811;28;20460;-67
2022/06/17 06:28:48;;;;;;;3.80;2.03;;;19.90;99.90;;;;;;5115213;28;20536;-67
2022/06/17 06:31:24;;;;;;;1.93;1.70;;;20.10;99.90;;;;;;5115912;28;20487;-66
2022/06/17 06:33:51;;;;;;;1.60;1.30;;;20.10;99.90;;;;;;5114667;27;20447;-66
2022/06/17 06:36:18;;;;;;;2.20;2.00;;;20.10;99.90;;;;;;5115198;28;20436;-67
2022/06/17 06:38:45;;;;;;;1.70;1.57;;;20.10;99.90;;;;;;5115203;28;20456;-66
2022/06/17 06:41:12;;;;;;;2.80;1.67;;;20.20;99.90;;;;;;5115184;28;20447;-66
2022/06/17 06:43:41;;;;;;;2.60;1.70;;;20.20;99.90;;;;;;5114708;28;20934;-66
2022/06/17 06:46:11;;;;;;;2.50;1.80;;;20.20;99.90;;;;;;5114812;28;20462;-66
2022/06/17 06:48:39;;;;;;;2.80;1.77;;;20.30;99.90;;;;;;5115429;28;20463;-66
2022/06/17 06:51:06;;;;;;;2.17;1.77;;;20.30;99.90;;;;;;5114598;28;20490;-67
2022/06/17 06:53:33;;;;;;;2.77;1.60;;;20.30;99.90;;;;;;5114763;28;20443;-67
2022/06/17 06:56:00;;;;;;;3.20;1.80;;;20.40;99.90;;;;;;5114026;28;20458;-67
2022/06/17 06:58:27;;;;;;;2.03;1.73;;;20.30;99.90;;;;;;5115129;28;20452;-67
2022/06/17 07:00:56;;;;;;;4.03;2.60;;;20.40;99.90;;;;;;5114003;28;20448;-67
2022/06/17 07:03:25;;;;;;;2.43;2.23;;;20.50;99.90;;;;;;5114716;28;20471;-67
2022/06/17 07:05:54;;;;;;;2.23;2.03;;;20.40;99.90;;;;;;5114251;28;20531;-67
2022/06/17 07:08:23;;;;;;;2.60;1.80;;;20.50;99.90;;;;;;5114815;28;20455;-67
2022/06/17 07:10:51;;;;;;;2.07;1.77;;;20.60;99.90;;;;;;5113954;28;21079;-67
2022/06/17 07:13:19;;;;;;;2.07;1.90;;;20.60;99.90;;;;;;5104749;28;20500;-68
2022/06/17 07:15:47;;;;;;;1.90;1.80;;;20.50;99.90;;;;;;5114925;28;20445;-67
2022/06/17 07:18:17;;;;;;;1.90;1.80;;;20.60;99.90;;;;;;5114679;28;20439;-67
2022/06/17 07:20:47;;;;;;;3.73;2.50;;;20.70;99.90;;;;;;5114731;28;20454;-67
2022/06/17 07:23:16;;;;;;;2.27;2.03;;;20.80;99.90;;;;;;5114237;28;20452;-67
2022/06/17 07:25:43;;;;;;;3.37;2.00;;;21.00;99.90;;;;;;5114596;28;20953;-67
2022/06/17 07:28:13;;;;;;;4.50;1.73;;;21.10;99.90;;;;;;5114384;28;20490;-67
2022/06/17 07:30:40;;;;;;;2.43;1.80;;;21.20;99.90;;;;;;5114398;28;20479;-67
2022/06/17 07:33:07;;;;;;;2.40;2.20;;;21.30;99.90;;;;;;5113864;28;20789;-67
2022/06/17 07:35:35;;;;;;;2.13;1.90;;;21.30;99.90;;;;;;5113573;28;20483;-67
2022/06/17 07:40:48;;;;;;;2.03;1.80;;;21.50;99.20;;;;;;5114520;28;20407;-67
2022/06/17 07:43:15;;;;;;;1.60;1.50;;;21.50;97.80;;;;;;5113654;28;20452;-67
2022/06/17 07:45:43;;;;;;;2.10;1.43;;;21.60;97.50;;;;;;5114602;28;20864;-67
2022/06/17 07:48:13;;;;;;;1.87;1.73;;;21.60;97.10;;;;;;5113367;28;20804;-67
2022/06/17 07:50:43;;;;;;;2.13;1.60;;;21.70;96.60;;;;;;5113740;28;20919;-67
2022/06/17 07:53:11;;;;;;;2.50;2.30;;;21.80;95.00;;;;;;5112977;28;20479;-67
2022/06/17 07:55:37;;;;;;;1.77;1.67;;;21.80;94.60;;;;;;5113840;28;20456;-67
2022/06/17 07:58:05;;;;;;;3.33;1.83;;;22.00;94.20;;;;;;5113378;28;20534;-67
2022/06/17 08:00:35;;;;;;;3.40;1.60;;;22.10;92.50;;;;;;5114054;28;20444;-67
2022/06/17 08:03:02;;;;;;;3.13;2.00;;;22.20;91.40;;;;;;5112814;28;20456;-67
2022/06/17 08:05:30;;;;;;;2.20;1.93;;;22.20;91.20;;;;;;5113445;28;20535;-67
2022/06/17 08:07:59;;;;;;;2.33;1.83;;;22.20;90.60;;;;;;5112988;28;20440;-67
2022/06/17 08:10:28;;;;;;;2.93;1.97;;;22.30;88.20;;;;;;5114067;28;20504;-67
2022/06/17 08:12:55;;;;;;;2.43;2.13;;;22.50;85.60;;;;;;5112594;28;20479;-67
2022/06/17 08:15:23;;;;;;;2.97;2.27;;;22.50;82.90;;;;;;5113727;28;20450;-67
2022/06/17 08:17:49;;;;;;;1.87;1.73;;;22.60;80.80;;;;;;5112864;28;20534;-67
2022/06/17 08:20:19;;;;;;;2.00;1.80;;;22.60;77.80;;;;;;5113718;28;20769;-67
2022/06/17 08:22:47;;;;;;;3.33;1.90;;;22.50;72.40;;;;;;5112796;28;20452;-67
2022/06/17 08:25:15;;;;;;;1.80;1.70;;;22.60;69.80;;;;;;5113421;28;20486;-66
2022/06/17 08:27:43;;;;;;;1.70;1.60;;;22.60;62.80;;;;;;5112962;28;20475;-66
2022/06/17 08:30:11;;;;;;;1.70;1.60;;;22.70;55.80;;;;;;5112907;28;20458;-66
2022/06/17 08:32:48;;;;;;;1.77;1.43;;;22.70;45.10;;;;;;5112937;28;20484;-67
2022/06/17 08:35:16;;;;;;;1.57;1.47;;;22.80;41.80;;;;;;5113053;28;20992;-66
2022/06/17 08:37:45;;;;;;;2.50;2.00;;;23.00;39.60;;;;;;5113262;28;20440;-66
2022/06/17 08:40:35;;;;;;;2.50;2.03;;;23.30;35.90;;;;;;5112250;28;20930;-66
2022/06/17 08:43:16;;;;;;;1.60;1.50;;;23.40;33.30;;;;;;5112152;28;20459;-67
2022/06/17 08:45:51;;;;;;;3.70;1.77;;;23.40;24.80;;;;;;5113175;28;20428;-67
2022/06/17 08:48:34;;;;;;;1.67;1.57;;;23.40;21.20;;;;;;5112751;28;20439;-67
2022/06/17 08:51:14;;;;;;;1.67;1.57;;;23.50;17.60;;;;;;5112016;28;20469;-67
2022/06/17 08:53:56;;;;;;;1.50;1.40;;;23.70;18.30;;;;;;5112400;28;20443;-67
2022/06/17 08:56:32;;;;;;;1.90;1.70;;;23.80;10.40;;;;;;5112713;28;20455;-67
2022/06/17 08:59:09;;;;;;;1.90;1.60;;;23.80;8.10;;;;;;5112167;28;20450;-67
2022/06/17 09:01:44;;;;;;;1.67;1.57;;;23.80;5.60;;;;;;5112772;28;20538;-67
2022/06/17 09:04:26;;;;;;;1.90;1.73;;;23.90;4.60;;;;;;5111721;28;20445;-67
2022/06/17 09:07:05;;;;;;;1.70;1.60;;;23.90;3.00;;;;;;5112039;28;20444;-67
2022/06/17 09:09:54;;;;;;;1.60;1.47;;;24.00;1.00;;;;;;5112567;28;20506;-67
2022/06/17 09:12:32;;;;;;;1.67;1.40;;;23.80;1.00;;;;;;5112581;28;20474;-66
2022/06/17 09:15:08;;;;;;;2.00;1.80;;;24.00;1.00;;;;;;5111783;28;20480;-67
2022/06/17 09:17:42;;;;;;;2.50;2.00;;;24.10;1.00;;;;;;5112619;28;20847;-67
2022/06/17 09:20:14;;;;;;;2.77;2.13;;;24.10;1.00;;;;;;5111940;28;20440;-66
2022/06/17 09:22:44;;;;;;;2.10;1.77;;;24.20;1.00;;;;;;5099030;28;20453;-66
2022/06/17 09:25:17;;;;;;;1.90;1.67;;;24.30;1.00;;;;;;5111952;28;20460;-66
2022/06/17 09:27:49;;;;;;;2.00;1.53;;;24.30;1.00;;;;;;5112485;28;20563;-67
2022/06/17 09:30:19;;;;;;;2.20;1.60;;;24.50;1.00;;;;;;5112008;28;20547;-65
2022/06/17 09:32:55;;;;;;;2.03;1.70;;;24.50;1.00;;;;;;5111595;28;20567;-66
2022/06/17 09:35:28;;;;;;;2.23;2.03;;;24.50;1.00;;;;;;5111769;28;20424;-67
2022/06/17 09:37:58;;;;;;;4.20;2.13;;;24.70;1.00;;;;;;5111543;28;20533;-66
2022/06/17 09:40:30;;;;;;;4.10;1.87;;;24.80;1.00;;;;;;5111993;28;20527;-66
2022/06/17 09:43:07;;;;;;;1.80;1.70;;;24.80;1.00;;;;;;5110777;28;20448;-66
2022/06/17 09:45:39;;;;;;;2.40;1.47;;;25.00;1.00;;;;;;5112025;28;20436;-65
2022/06/17 09:48:15;;;;;;;1.80;1.70;;;24.90;1.00;;;;;;5111037;28;20792;-66
2022/06/17 09:50:47;;;;;;;1.87;1.77;;;24.90;1.00;;;;;;5112012;28;20505;-66
2022/06/17 09:53:18;;;;;;;1.57;1.47;;;24.90;1.00;;;;;;5111205;28;20555;-66
2022/06/17 09:55:50;;;;;;;1.77;1.50;;;25.00;1.00;;;;;;5111902;28;20517;-66
2022/06/17 09:58:25;;;;;;;4.87;1.87;;;25.20;1.00;;;;;;5098790;28;20452;-66
2022/06/17 10:00:55;;;;;;;1.90;1.70;;;25.30;1.00;;;;;;5110586;28;20438;-66
2022/06/17 10:03:24;;;;;;;2.40;1.90;;;25.30;1.00;;;;;;5111763;28;20451;-66
2022/06/17 10:06:11;;;;;;;1.90;1.73;;;25.40;1.00;;;;;;5111264;28;20523;-66
2022/06/17 10:08:48;;;;;;;2.33;2.00;;;25.40;1.00;;;;;;5111767;28;20454;-67
2022/06/17 10:11:23;;;;;;;2.00;1.90;;;25.50;1.00;;;;;;5111854;28;20794;-67
2022/06/17 10:14:04;;;;;;;1.80;1.70;;;25.50;1.00;;;;;;5110898;28;20522;-68
2022/06/17 10:19:37;;;;;;;2.80;1.87;;;25.40;1.00;;;;;;5111625;28;20415;-67
2022/06/17 10:22:19;;;;;;;2.47;1.73;;;25.60;1.00;;;;;;5110818;28;20443;-66
2022/06/17 10:24:59;;;;;;;1.60;1.50;;;25.80;1.00;;;;;;5111405;28;20458;-67
2022/06/17 10:27:39;;;;;;;1.60;1.50;;;25.70;1.00;;;;;;5111485;28;20475;-66
2022/06/17 10:30:11;;;;;;;1.77;1.67;;;26.00;1.00;;;;;;5110245;28;20456;-66
2022/06/17 10:32:47;;;;;;;1.63;1.53;;;26.00;1.00;;;;;;5100776;28;20480;-66
2022/06/17 10:35:17;;;;;;;5.00;4.10;;;26.10;1.00;;;;;;5112958;28;20439;-66
2022/06/17 10:37:44;;;;;;;2.50;2.20;;;26.30;1.00;;;;;;5112418;28;20459;-66
2022/06/17 10:40:16;;;;;;;3.10;2.10;;;26.50;1.00;;;;;;5111378;28;20451;-67
2022/06/17 10:42:46;;;;;;;1.80;1.70;;;26.70;1.00;;;;;;5111572;28;20761;-67
2022/06/17 10:45:17;;;;;;;2.17;1.97;;;26.70;1.00;;;;;;5111624;28;20448;-67
2022/06/17 10:47:53;;;;;;;1.73;1.63;;;26.70;1.00;;;;;;5111360;28;20949;-67
2022/06/17 10:50:22;;;;;;;1.40;1.30;;;26.80;1.00;;;;;;5098707;28;20443;-67
2022/06/17 10:52:55;;;;;;;1.87;1.60;;;26.80;1.00;;;;;;5110351;28;20483;-68
2022/06/17 10:55:28;;;;;;;1.87;1.77;;;27.10;1.00;;;;;;5111369;28;20455;-68
2022/06/17 10:58:16;;;;;;;1.77;1.67;;;27.00;1.00;;;;;;5110464;28;20444;-68
2022/06/17 11:00:54;;;;;;;3.60;1.90;;;26.80;1.00;;;;;;5111608;28;20964;-67
2022/06/17 11:03:25;;;;;;;3.63;1.50;;;27.00;1.00;;;;;;5098846;28;20457;-69
2022/06/17 11:05:58;;;;;;;2.30;1.57;;;27.00;1.00;;;;;;5110714;28;20519;-67
2022/06/17 11:08:29;;;;;;;1.70;1.60;;;27.00;1.00;;;;;;5111198;28;20442;-67
2022/06/17 11:12:02;;;;;;;1.97;1.70;;;27.30;1.00;;;;;;5112495;28;20477;-68
2022/06/17 11:13:47;;;;;;;1.50;1.40;;;27.30;1.00;;;;;;5114013;28;20483;-69
2022/06/17 11:16:20;;;;;;;1.63;1.50;;;27.30;1.00;;;;;;5114767;28;20453;-67
2022/06/17 11:18:54;;;;;;;1.40;1.30;;;27.10;1.00;;;;;;5115100;28;20798;-68
2022/06/17 11:21:27;;;;;;;1.70;1.60;;;27.40;1.00;;;;;;5115089;28;20446;-68
2022/06/17 11:23:57;;;;;;;3.03;1.60;;;27.10;1.00;;;;;;5113569;28;20995;-68
2022/06/17 11:26:27;;;;;;;1.63;1.53;;;27.20;1.00;;;;;;5114584;28;21002;-66
2022/06/17 11:28:58;;;;;;;1.70;1.60;;;27.70;1.00;;;;;;5114146;28;20489;-67
2022/06/17 11:31:41;;;;;;;1.97;1.53;;;27.70;1.00;;;;;;5114460;28;20448;-67
2022/06/17 11:34:15;;;;;;;1.83;1.53;;;28.00;1.00;;;;;;5100979;28;20443;-66
2022/06/17 11:36:57;;;;;;;1.40;1.30;;;28.40;1.00;;;;;;5114418;28;20451;-67
2022/06/17 11:39:34;;;;;;;1.47;1.37;;;28.40;1.00;;;;;;5114256;28;20516;-67
2022/06/17 11:42:04;;;;;;;2.17;1.40;;;28.40;1.00;;;;;;5113335;28;20910;-67
2022/06/17 11:44:31;;;;;;;2.00;1.70;;;28.20;1.00;;;;;;5113957;28;20787;-66
2022/06/17 11:47:03;;;;;;;2.13;1.50;;;28.30;1.00;;;;;;5113267;28;20539;-67
2022/06/17 11:49:35;;;;;;;1.60;1.50;;;28.00;1.00;;;;;;5114242;28;20436;-67
2022/06/17 11:52:05;;;;;;;1.80;1.37;;;27.70;1.00;;;;;;5113441;28;20439;-67
2022/06/17 11:54:36;;;;;;;1.60;1.50;;;27.80;1.00;;;;;;5113484;28;20450;-67
2022/06/17 11:57:17;;;;;;;1.70;1.60;;;28.10;1.00;;;;;;5113780;28;20459;-67
2022/06/17 11:59:47;;;;;;;1.73;1.40;;;28.10;1.00;;;;;;5113747;28;20944;-67
2022/06/17 12:02:15;;;;;;;1.70;1.60;;;28.20;1.00;;;;;;5114152;28;20449;-67
2022/06/17 12:04:46;;;;;;;1.43;1.33;;;28.30;1.00;;;;;;5113523;28;20436;-67
2022/06/17 12:07:28;;;;;;;1.30;1.20;;;28.30;1.00;;;;;;5113786;28;20450;-67
2022/06/17 12:10:02;;;;;;;1.30;1.20;;;28.60;1.00;;;;;;5101469;28;20440;-67
2022/06/17 12:12:30;;;;;;;1.40;1.30;;;28.70;1.00;;;;;;5113271;28;20507;-67
2022/06/17 12:15:02;;;;;;;1.70;1.40;;;28.50;1.00;;;;;;5113225;28;20447;-67
2022/06/17 12:17:32;;;;;;;1.80;1.23;;;28.60;1.00;;;;;;5113621;28;20443;-67
2022/06/17 12:19:59;;;;;;;1.20;1.10;;;29.00;1.00;;;;;;5112942;28;20458;-67
2022/06/17 12:22:33;;;;;;;1.57;1.33;;;28.90;1.00;;;;;;5111893;28;20447;-67
2022/06/17 12:25:10;;;;;;;1.43;1.23;;;29.10;1.00;;;;;;5112684;28;20937;-67
2022/06/17 12:27:42;;;;;;;1.47;1.30;;;28.70;1.00;;;;;;5113472;28;20473;-67
2022/06/17 12:30:14;;;;;;;1.50;1.40;;;28.90;1.00;;;;;;5112790;28;20458;-67
2022/06/17 12:32:49;;;;;;;1.53;1.43;;;28.90;1.00;;;;;;5112894;28;20475;-67
2022/06/17 12:35:22;;;;;;;1.20;1.10;;;28.80;1.00;;;;;;5113467;28;20446;-67
2022/06/17 12:37:56;;;;;;;1.20;1.10;;;29.10;1.00;;;;;;5112726;28;20541;-67
2022/06/17 12:40:32;;;;;;;1.33;1.23;;;29.00;1.00;;;;;;5113339;28;20484;-67
2022/06/17 12:43:07;;;;;;;2.00;1.60;;;28.80;1.00;;;;;;5112342;28;20465;-67
2022/06/17 12:45:39;;;;;;;2.33;1.37;;;28.90;1.00;;;;;;5113215;28;20477;-67
2022/06/17 12:48:18;;;;;;;1.20;1.10;;;29.00;1.00;;;;;;5112448;28;20842;-66
2022/06/17 12:53:42;;;;;;;1.43;1.33;;;28.60;1.00;;;;;;5112175;28;20539;-66
2022/06/17 12:56:24;;;;;;;2.20;1.90;;;28.70;1.00;;;;;;5112312;28;20454;-67
2022/06/17 12:59:26;;;;;;;1.50;1.30;;;28.90;1.00;;;;;;5112006;28;20934;-67
2022/06/17 13:02:05;;;;;;;1.30;1.20;;;28.80;1.00;;;;;;5112197;28;20435;-67
2022/06/17 13:05:00;;;;;;;1.37;1.17;;;29.00;1.00;;;;;;5112250;28;20443;-67
2022/06/17 13:07:39;;;;;;;1.43;1.23;;;28.80;1.00;;;;;;5112615;28;20504;-67
2022/06/17 13:13:10;;;;;;;1.20;1.10;;;28.80;1.00;;;;;;5111347;28;20455;-67
2022/06/17 13:15:42;;;;;;;1.37;1.13;;;29.10;1.00;;;;;;5112567;28;20477;-67
2022/06/17 13:18:13;;;;;;;1.00;0.90;;;29.50;1.00;;;;;;5111616;28;20443;-67
2022/06/17 13:20:47;;;;;;;1.00;0.90;;;29.30;1.00;;;;;;5112247;28;20446;-66
2022/06/17 13:23:20;;;;;;;1.47;1.37;;;29.20;1.00;;;;;;5111613;28;20443;-67
2022/06/17 13:25:53;;;;;;;1.93;0.97;;;29.20;1.00;;;;;;5112095;28;20451;-66
2022/06/17 13:28:26;;;;;;;1.60;1.10;;;29.30;1.00;;;;;;5112317;28;20532;-67